sensor_id;sensor_type;location;lat;lon;timestamp;P1;durP1;ratioP1;P2;durP2;ratioP2
24107;SDS011;12280;51.362;6.694;2023-06-22T00:00:46;2.42;;;2.22;;
24107;SDS011;12280;51.362;6.694;2023-06-22T00:03:12;2.55;;;1.58;;
24107;SDS011;12280;51.362;6.694;2023-06-22T00:05:38;1.63;;;1.55;;
24107;SDS011;12280;51.362;6.694;2023-06-22T00:08:04;1.48;;;1.38;;
24107;SDS011;12280;51.362;6.694;2023-06-22T00:10:30;1.75;;;1.63;;
24107;SDS011;12280;51.362;6.694;2023-06-22T00:12:56;5.95;;;3.15;;
24107;SDS011;12280;51.362;6.694;2023-06-22T00:15:22;3.47;;;1.70;;
24107;SDS011;12280;51.362;6.694;2023-06-22T00:17:49;0.88;;;0.88;;
24107;SDS011;12280;51.362;6.694;2023-06-22T00:20:15;1.92;;;1.88;;
24107;SDS011;12280;51.362;6.694;2023-06-22T00:22:43;1.52;;;1.42;;
24107;SDS011;12280;51.362;6.694;2023-06-22T00:25:09;1.55;;;1.02;;
24107;SDS011;12280;51.362;6.694;2023-06-22T00:27:35;2.95;;;2.70;;
24107;SDS011;12280;51.362;6.694;2023-06-22T00:30:01;0.90;;;0.90;;
24107;SDS011;12280;51.362;6.694;2023-06-22T00:32:28;6.65;;;2.38;;
24107;SDS011;12280;51.362;6.694;2023-06-22T00:34:54;2.30;;;1.58;;
24107;SDS011;12280;51.362;6.694;2023-06-22T00:37:20;3.53;;;1.23;;
24107;SDS011;12280;51.362;6.694;2023-06-22T00:39:51;2.33;;;2.15;;
24107;SDS011;12280;51.362;6.694;2023-06-22T00:42:17;13.05;;;1.85;;
24107;SDS011;12280;51.362;6.694;2023-06-22T00:44:43;1.48;;;1.38;;
24107;SDS011;12280;51.362;6.694;2023-06-22T00:47:10;0.70;;;0.70;;
24107;SDS011;12280;51.362;6.694;2023-06-22T00:49:37;1.73;;;1.50;;
24107;SDS011;12280;51.362;6.694;2023-06-22T00:52:03;1.73;;;1.38;;
24107;SDS011;12280;51.362;6.694;2023-06-22T00:54:34;1.30;;;1.30;;
24107;SDS011;12280;51.362;6.694;2023-06-22T00:57:01;1.10;;;1.10;;
24107;SDS011;12280;51.362;6.694;2023-06-22T00:59:27;0.77;;;0.77;;
24107;SDS011;12280;51.362;6.694;2023-06-22T01:01:53;2.10;;;1.95;;
24107;SDS011;12280;51.362;6.694;2023-06-22T01:04:19;1.70;;;1.63;;
24107;SDS011;12280;51.362;6.694;2023-06-22T01:06:55;1.60;;;1.00;;
24107;SDS011;12280;51.362;6.694;2023-06-22T01:09:28;1.52;;;1.52;;
24107;SDS011;12280;51.362;6.694;2023-06-22T01:11:58;2.17;;;1.98;;
24107;SDS011;12280;51.362;6.694;2023-06-22T01:16:51;2.67;;;1.60;;
24107;SDS011;12280;51.362;6.694;2023-06-22T01:22:04;1.77;;;1.65;;
24107;SDS011;12280;51.362;6.694;2023-06-22T01:24:41;1.20;;;1.15;;
24107;SDS011;12280;51.362;6.694;2023-06-22T01:29:53;2.58;;;2.38;;
24107;SDS011;12280;51.362;6.694;2023-06-22T01:32:33;5.18;;;3.53;;
24107;SDS011;12280;51.362;6.694;2023-06-22T01:35:00;1.35;;;1.35;;
24107;SDS011;12280;51.362;6.694;2023-06-22T01:37:27;2.28;;;2.17;;
24107;SDS011;12280;51.362;6.694;2023-06-22T01:39:54;1.95;;;1.85;;
24107;SDS011;12280;51.362;6.694;2023-06-22T01:42:21;0.82;;;0.82;;
24107;SDS011;12280;51.362;6.694;2023-06-22T01:44:47;1.38;;;1.35;;
24107;SDS011;12280;51.362;6.694;2023-06-22T01:47:13;2.33;;;2.13;;
24107;SDS011;12280;51.362;6.694;2023-06-22T01:49:40;2.20;;;1.95;;
24107;SDS011;12280;51.362;6.694;2023-06-22T01:52:06;2.67;;;2.38;;
24107;SDS011;12280;51.362;6.694;2023-06-22T01:54:33;2.15;;;2.05;;
24107;SDS011;12280;51.362;6.694;2023-06-22T01:56:59;2.13;;;1.98;;
24107;SDS011;12280;51.362;6.694;2023-06-22T01:59:32;6.15;;;1.55;;
24107;SDS011;12280;51.362;6.694;2023-06-22T02:02:07;3.20;;;1.58;;
24107;SDS011;12280;51.362;6.694;2023-06-22T02:05:07;1.42;;;1.42;;
24107;SDS011;12280;51.362;6.694;2023-06-22T02:07:28;2.35;;;2.15;;
24107;SDS011;12280;51.362;6.694;2023-06-22T02:09:57;1.55;;;1.55;;
24107;SDS011;12280;51.362;6.694;2023-06-22T02:12:24;2.78;;;1.63;;
24107;SDS011;12280;51.362;6.694;2023-06-22T02:14:52;1.35;;;1.15;;
24107;SDS011;12280;51.362;6.694;2023-06-22T02:17:18;2.03;;;1.92;;
24107;SDS011;12280;51.362;6.694;2023-06-22T02:19:44;1.45;;;1.42;;
24107;SDS011;12280;51.362;6.694;2023-06-22T02:22:10;1.10;;;1.10;;
24107;SDS011;12280;51.362;6.694;2023-06-22T02:24:38;10.20;;;2.70;;
24107;SDS011;12280;51.362;6.694;2023-06-22T02:27:04;1.75;;;1.75;;
24107;SDS011;12280;51.362;6.694;2023-06-22T02:29:32;3.97;;;3.67;;
24107;SDS011;12280;51.362;6.694;2023-06-22T02:31:58;5.72;;;2.58;;
24107;SDS011;12280;51.362;6.694;2023-06-22T02:34:24;4.55;;;1.48;;
24107;SDS011;12280;51.362;6.694;2023-06-22T02:36:50;4.15;;;3.75;;
24107;SDS011;12280;51.362;6.694;2023-06-22T02:39:21;2.45;;;2.35;;
24107;SDS011;12280;51.362;6.694;2023-06-22T02:41:51;2.15;;;1.77;;
24107;SDS011;12280;51.362;6.694;2023-06-22T02:44:17;3.55;;;3.25;;
24107;SDS011;12280;51.362;6.694;2023-06-22T02:46:43;3.03;;;2.17;;
24107;SDS011;12280;51.362;6.694;2023-06-22T02:49:09;2.92;;;1.10;;
24107;SDS011;12280;51.362;6.694;2023-06-22T02:51:38;2.22;;;1.80;;
24107;SDS011;12280;51.362;6.694;2023-06-22T02:54:04;2.28;;;2.17;;
24107;SDS011;12280;51.362;6.694;2023-06-22T02:56:30;2.90;;;2.70;;
24107;SDS011;12280;51.362;6.694;2023-06-22T02:58:56;2.30;;;2.20;;
24107;SDS011;12280;51.362;6.694;2023-06-22T03:01:29;1.80;;;1.80;;
24107;SDS011;12280;51.362;6.694;2023-06-22T03:03:56;5.03;;;4.68;;
24107;SDS011;12280;51.362;6.694;2023-06-22T03:06:22;2.22;;;2.15;;
24107;SDS011;12280;51.362;6.694;2023-06-22T03:08:51;2.85;;;2.53;;
24107;SDS011;12280;51.362;6.694;2023-06-22T03:11:17;2.15;;;2.00;;
24107;SDS011;12280;51.362;6.694;2023-06-22T03:13:43;4.57;;;2.83;;
24107;SDS011;12280;51.362;6.694;2023-06-22T03:16:11;3.13;;;2.78;;
24107;SDS011;12280;51.362;6.694;2023-06-22T03:18:37;2.47;;;1.77;;
24107;SDS011;12280;51.362;6.694;2023-06-22T03:21:03;3.75;;;2.58;;
24107;SDS011;12280;51.362;6.694;2023-06-22T03:23:30;2.60;;;2.50;;
24107;SDS011;12280;51.362;6.694;2023-06-22T03:25:56;3.15;;;2.70;;
24107;SDS011;12280;51.362;6.694;2023-06-22T03:28:22;4.35;;;2.42;;
24107;SDS011;12280;51.362;6.694;2023-06-22T03:30:48;1.90;;;1.75;;
24107;SDS011;12280;51.362;6.694;2023-06-22T03:33:14;3.00;;;2.17;;
24107;SDS011;12280;51.362;6.694;2023-06-22T03:35:40;3.85;;;3.65;;
24107;SDS011;12280;51.362;6.694;2023-06-22T03:38:07;3.90;;;3.65;;
24107;SDS011;12280;51.362;6.694;2023-06-22T03:40:33;4.82;;;2.38;;
24107;SDS011;12280;51.362;6.694;2023-06-22T03:42:58;1.40;;;1.35;;
24107;SDS011;12280;51.362;6.694;2023-06-22T03:45:24;2.40;;;2.30;;
24107;SDS011;12280;51.362;6.694;2023-06-22T03:47:50;2.30;;;2.25;;
24107;SDS011;12280;51.362;6.694;2023-06-22T03:50:16;3.97;;;3.38;;
24107;SDS011;12280;51.362;6.694;2023-06-22T03:52:45;8.95;;;1.75;;
24107;SDS011;12280;51.362;6.694;2023-06-22T03:55:11;8.52;;;5.38;;
24107;SDS011;12280;51.362;6.694;2023-06-22T03:57:37;3.17;;;2.97;;
24107;SDS011;12280;51.362;6.694;2023-06-22T04:00:03;3.50;;;3.22;;
24107;SDS011;12280;51.362;6.694;2023-06-22T04:02:33;8.57;;;5.03;;
24107;SDS011;12280;51.362;6.694;2023-06-22T04:04:59;4.35;;;3.88;;
24107;SDS011;12280;51.362;6.694;2023-06-22T04:07:24;5.10;;;4.72;;
24107;SDS011;12280;51.362;6.694;2023-06-22T04:09:51;1.95;;;1.90;;
24107;SDS011;12280;51.362;6.694;2023-06-22T04:12:16;2.20;;;2.10;;
24107;SDS011;12280;51.362;6.694;2023-06-22T04:14:42;2.15;;;1.92;;
24107;SDS011;12280;51.362;6.694;2023-06-22T04:17:08;3.00;;;2.88;;
24107;SDS011;12280;51.362;6.694;2023-06-22T04:19:34;1.63;;;1.52;;
24107;SDS011;12280;51.362;6.694;2023-06-22T04:22:00;2.47;;;2.38;;
24107;SDS011;12280;51.362;6.694;2023-06-22T04:24:26;2.83;;;2.05;;
24107;SDS011;12280;51.362;6.694;2023-06-22T04:26:52;6.75;;;4.85;;
24107;SDS011;12280;51.362;6.694;2023-06-22T04:29:19;10.23;;;3.90;;
24107;SDS011;12280;51.362;6.694;2023-06-22T04:31:45;1.27;;;1.27;;
24107;SDS011;12280;51.362;6.694;2023-06-22T04:34:15;2.83;;;1.80;;
24107;SDS011;12280;51.362;6.694;2023-06-22T04:36:41;1.42;;;1.40;;
24107;SDS011;12280;51.362;6.694;2023-06-22T04:39:08;1.95;;;1.85;;
24107;SDS011;12280;51.362;6.694;2023-06-22T04:41:38;1.40;;;1.40;;
24107;SDS011;12280;51.362;6.694;2023-06-22T04:44:08;4.63;;;3.33;;
24107;SDS011;12280;51.362;6.694;2023-06-22T04:46:34;7.40;;;5.68;;
24107;SDS011;12280;51.362;6.694;2023-06-22T04:49:04;2.47;;;2.38;;
24107;SDS011;12280;51.362;6.694;2023-06-22T04:51:31;17.73;;;4.38;;
24107;SDS011;12280;51.362;6.694;2023-06-22T04:53:57;7.07;;;3.00;;
24107;SDS011;12280;51.362;6.694;2023-06-22T04:56:25;3.40;;;3.10;;
24107;SDS011;12280;51.362;6.694;2023-06-22T04:58:55;4.45;;;4.13;;
24107;SDS011;12280;51.362;6.694;2023-06-22T05:01:22;2.15;;;2.05;;
24107;SDS011;12280;51.362;6.694;2023-06-22T05:03:48;3.80;;;3.58;;
24107;SDS011;12280;51.362;6.694;2023-06-22T05:06:14;5.40;;;2.40;;
24107;SDS011;12280;51.362;6.694;2023-06-22T05:08:40;2.55;;;2.45;;
24107;SDS011;12280;51.362;6.694;2023-06-22T05:11:06;2.72;;;2.53;;
24107;SDS011;12280;51.362;6.694;2023-06-22T05:13:32;2.90;;;2.70;;
24107;SDS011;12280;51.362;6.694;2023-06-22T05:15:58;2.03;;;1.92;;
24107;SDS011;12280;51.362;6.694;2023-06-22T05:18:30;4.57;;;2.95;;
24107;SDS011;12280;51.362;6.694;2023-06-22T05:20:57;3.40;;;2.72;;
24107;SDS011;12280;51.362;6.694;2023-06-22T05:23:23;4.10;;;2.25;;
24107;SDS011;12280;51.362;6.694;2023-06-22T05:25:49;1.92;;;1.83;;
24107;SDS011;12280;51.362;6.694;2023-06-22T05:28:15;2.28;;;2.17;;
24107;SDS011;12280;51.362;6.694;2023-06-22T05:30:41;3.50;;;1.73;;
24107;SDS011;12280;51.362;6.694;2023-06-22T05:33:07;1.83;;;1.73;;
24107;SDS011;12280;51.362;6.694;2023-06-22T05:35:33;2.22;;;2.13;;
24107;SDS011;12280;51.362;6.694;2023-06-22T05:37:59;3.38;;;2.78;;
24107;SDS011;12280;51.362;6.694;2023-06-22T05:40:25;2.67;;;2.58;;
24107;SDS011;12280;51.362;6.694;2023-06-22T05:42:52;2.67;;;2.47;;
24107;SDS011;12280;51.362;6.694;2023-06-22T05:45:18;5.20;;;4.13;;
24107;SDS011;12280;51.362;6.694;2023-06-22T05:47:44;1.55;;;1.52;;
24107;SDS011;12280;51.362;6.694;2023-06-22T05:50:10;1.55;;;1.55;;
24107;SDS011;12280;51.362;6.694;2023-06-22T05:52:36;2.05;;;1.67;;
24107;SDS011;12280;51.362;6.694;2023-06-22T05:55:02;3.55;;;3.25;;
24107;SDS011;12280;51.362;6.694;2023-06-22T05:57:28;4.88;;;4.35;;
24107;SDS011;12280;51.362;6.694;2023-06-22T05:59:54;4.07;;;3.88;;
24107;SDS011;12280;51.362;6.694;2023-06-22T06:02:20;2.22;;;2.10;;
24107;SDS011;12280;51.362;6.694;2023-06-22T06:04:46;3.47;;;2.95;;
24107;SDS011;12280;51.362;6.694;2023-06-22T06:07:12;20.60;;;4.10;;
24107;SDS011;12280;51.362;6.694;2023-06-22T06:09:38;2.90;;;2.70;;
24107;SDS011;12280;51.362;6.694;2023-06-22T06:12:04;2.58;;;2.33;;
24107;SDS011;12280;51.362;6.694;2023-06-22T06:14:30;2.45;;;2.30;;
24107;SDS011;12280;51.362;6.694;2023-06-22T06:16:56;1.90;;;1.80;;
24107;SDS011;12280;51.362;6.694;2023-06-22T06:19:22;3.47;;;3.17;;
24107;SDS011;12280;51.362;6.694;2023-06-22T06:21:48;1.80;;;1.70;;
24107;SDS011;12280;51.362;6.694;2023-06-22T06:24:15;3.15;;;1.80;;
24107;SDS011;12280;51.362;6.694;2023-06-22T06:26:41;4.47;;;2.42;;
24107;SDS011;12280;51.362;6.694;2023-06-22T06:29:07;3.33;;;3.03;;
24107;SDS011;12280;51.362;6.694;2023-06-22T06:31:33;3.42;;;2.47;;
24107;SDS011;12280;51.362;6.694;2023-06-22T06:33:59;1.83;;;1.67;;
24107;SDS011;12280;51.362;6.694;2023-06-22T06:36:25;1.50;;;1.50;;
24107;SDS011;12280;51.362;6.694;2023-06-22T06:38:51;4.47;;;4.13;;
24107;SDS011;12280;51.362;6.694;2023-06-22T06:41:17;1.98;;;1.70;;
24107;SDS011;12280;51.362;6.694;2023-06-22T06:43:42;4.28;;;3.05;;
24107;SDS011;12280;51.362;6.694;2023-06-22T06:46:09;3.13;;;2.95;;
24107;SDS011;12280;51.362;6.694;2023-06-22T06:48:35;1.33;;;1.33;;
24107;SDS011;12280;51.362;6.694;2023-06-22T06:51:01;1.52;;;1.52;;
24107;SDS011;12280;51.362;6.694;2023-06-22T06:53:27;7.28;;;2.08;;
24107;SDS011;12280;51.362;6.694;2023-06-22T06:55:53;12.80;;;2.03;;
24107;SDS011;12280;51.362;6.694;2023-06-22T06:58:19;1.48;;;1.45;;
24107;SDS011;12280;51.362;6.694;2023-06-22T07:00:47;3.45;;;3.20;;
24107;SDS011;12280;51.362;6.694;2023-06-22T07:03:13;5.53;;;3.60;;
24107;SDS011;12280;51.362;6.694;2023-06-22T07:05:39;2.00;;;1.90;;
24107;SDS011;12280;51.362;6.694;2023-06-22T07:08:05;2.05;;;1.95;;
24107;SDS011;12280;51.362;6.694;2023-06-22T07:10:31;3.88;;;1.90;;
24107;SDS011;12280;51.362;6.694;2023-06-22T07:12:57;1.77;;;1.70;;
24107;SDS011;12280;51.362;6.694;2023-06-22T07:15:23;3.70;;;1.88;;
24107;SDS011;12280;51.362;6.694;2023-06-22T07:17:50;28.45;;;4.25;;
24107;SDS011;12280;51.362;6.694;2023-06-22T07:20:16;8.88;;;2.72;;
24107;SDS011;12280;51.362;6.694;2023-06-22T07:22:42;2.08;;;1.88;;
24107;SDS011;12280;51.362;6.694;2023-06-22T07:25:09;3.28;;;3.00;;
24107;SDS011;12280;51.362;6.694;2023-06-22T07:27:39;7.32;;;6.65;;
24107;SDS011;12280;51.362;6.694;2023-06-22T07:30:07;4.90;;;4.32;;
24107;SDS011;12280;51.362;6.694;2023-06-22T07:32:34;4.55;;;4.25;;
24107;SDS011;12280;51.362;6.694;2023-06-22T07:35:00;6.97;;;4.28;;
24107;SDS011;12280;51.362;6.694;2023-06-22T07:37:26;3.95;;;3.65;;
24107;SDS011;12280;51.362;6.694;2023-06-22T07:39:53;6.57;;;4.85;;
24107;SDS011;12280;51.362;6.694;2023-06-22T07:42:23;3.85;;;3.20;;
24107;SDS011;12280;51.362;6.694;2023-06-22T07:44:49;4.68;;;2.80;;
24107;SDS011;12280;51.362;6.694;2023-06-22T07:47:16;7.55;;;6.93;;
24107;SDS011;12280;51.362;6.694;2023-06-22T07:49:44;12.23;;;6.60;;
24107;SDS011;12280;51.362;6.694;2023-06-22T07:52:10;4.90;;;4.50;;
24107;SDS011;12280;51.362;6.694;2023-06-22T07:54:36;7.18;;;6.57;;
24107;SDS011;12280;51.362;6.694;2023-06-22T07:57:02;5.43;;;3.50;;
24107;SDS011;12280;51.362;6.694;2023-06-22T07:59:28;5.57;;;5.30;;
24107;SDS011;12280;51.362;6.694;2023-06-22T08:01:54;9.98;;;7.53;;
24107;SDS011;12280;51.362;6.694;2023-06-22T08:04:20;5.72;;;5.28;;
24107;SDS011;12280;51.362;6.694;2023-06-22T08:06:46;13.20;;;6.35;;
24107;SDS011;12280;51.362;6.694;2023-06-22T08:09:14;6.65;;;3.72;;
24107;SDS011;12280;51.362;6.694;2023-06-22T08:11:39;4.15;;;3.92;;
24107;SDS011;12280;51.362;6.694;2023-06-22T08:14:05;7.35;;;6.63;;
24107;SDS011;12280;51.362;6.694;2023-06-22T08:16:31;9.35;;;3.58;;
24107;SDS011;12280;51.362;6.694;2023-06-22T08:18:57;3.13;;;2.88;;
24107;SDS011;12280;51.362;6.694;2023-06-22T08:21:23;4.80;;;3.50;;
24107;SDS011;12280;51.362;6.694;2023-06-22T08:23:49;5.75;;;5.38;;
24107;SDS011;12280;51.362;6.694;2023-06-22T08:26:15;6.93;;;4.50;;
24107;SDS011;12280;51.362;6.694;2023-06-22T08:28:41;6.28;;;2.63;;
24107;SDS011;12280;51.362;6.694;2023-06-22T08:31:07;3.35;;;3.05;;
24107;SDS011;12280;51.362;6.694;2023-06-22T08:33:33;4.95;;;4.45;;
24107;SDS011;12280;51.362;6.694;2023-06-22T08:35:59;2.72;;;2.53;;
24107;SDS011;12280;51.362;6.694;2023-06-22T08:38:25;6.70;;;3.80;;
24107;SDS011;12280;51.362;6.694;2023-06-22T08:40:51;4.32;;;4.13;;
24107;SDS011;12280;51.362;6.694;2023-06-22T08:43:17;4.03;;;3.83;;
24107;SDS011;12280;51.362;6.694;2023-06-22T08:45:43;6.45;;;2.63;;
24107;SDS011;12280;51.362;6.694;2023-06-22T08:48:09;6.22;;;5.70;;
24107;SDS011;12280;51.362;6.694;2023-06-22T08:50:35;5.50;;;5.07;;
24107;SDS011;12280;51.362;6.694;2023-06-22T08:53:01;5.13;;;4.00;;
24107;SDS011;12280;51.362;6.694;2023-06-22T08:55:27;3.20;;;2.67;;
24107;SDS011;12280;51.362;6.694;2023-06-22T08:57:53;3.33;;;3.05;;
24107;SDS011;12280;51.362;6.694;2023-06-22T09:00:19;2.67;;;2.58;;
24107;SDS011;12280;51.362;6.694;2023-06-22T09:02:46;3.20;;;2.97;;
24107;SDS011;12280;51.362;6.694;2023-06-22T09:05:12;2.90;;;2.58;;
24107;SDS011;12280;51.362;6.694;2023-06-22T09:07:38;6.07;;;3.80;;
24107;SDS011;12280;51.362;6.694;2023-06-22T09:10:05;3.60;;;3.35;;
24107;SDS011;12280;51.362;6.694;2023-06-22T09:12:31;2.72;;;2.53;;
24107;SDS011;12280;51.362;6.694;2023-06-22T09:14:57;7.25;;;3.53;;
24107;SDS011;12280;51.362;6.694;2023-06-22T09:17:25;2.33;;;2.17;;
24107;SDS011;12280;51.362;6.694;2023-06-22T09:19:51;1.23;;;1.23;;
24107;SDS011;12280;51.362;6.694;2023-06-22T09:22:17;4.05;;;3.85;;
24107;SDS011;12280;51.362;6.694;2023-06-22T09:24:43;7.07;;;5.03;;
24107;SDS011;12280;51.362;6.694;2023-06-22T09:27:09;5.03;;;3.13;;
24107;SDS011;12280;51.362;6.694;2023-06-22T09:29:35;5.68;;;4.38;;
24107;SDS011;12280;51.362;6.694;2023-06-22T09:32:01;3.17;;;2.85;;
24107;SDS011;12280;51.362;6.694;2023-06-22T09:34:27;3.90;;;3.10;;
24107;SDS011;12280;51.362;6.694;2023-06-22T09:36:53;4.07;;;3.78;;
24107;SDS011;12280;51.362;6.694;2023-06-22T09:39:20;6.18;;;4.50;;
24107;SDS011;12280;51.362;6.694;2023-06-22T09:41:46;3.38;;;3.17;;
24107;SDS011;12280;51.362;6.694;2023-06-22T09:44:12;2.22;;;2.13;;
24107;SDS011;12280;51.362;6.694;2023-06-22T09:46:38;3.28;;;2.88;;
24107;SDS011;12280;51.362;6.694;2023-06-22T09:49:04;3.60;;;3.40;;
24107;SDS011;12280;51.362;6.694;2023-06-22T09:51:30;5.13;;;4.57;;
24107;SDS011;12280;51.362;6.694;2023-06-22T09:53:56;3.75;;;2.03;;
24107;SDS011;12280;51.362;6.694;2023-06-22T09:56:23;3.03;;;2.75;;
24107;SDS011;12280;51.362;6.694;2023-06-22T09:58:49;5.05;;;3.15;;
24107;SDS011;12280;51.362;6.694;2023-06-22T10:01:17;4.53;;;3.90;;
24107;SDS011;12280;51.362;6.694;2023-06-22T10:03:43;3.45;;;3.17;;
24107;SDS011;12280;51.362;6.694;2023-06-22T10:06:09;7.95;;;2.58;;
24107;SDS011;12280;51.362;6.694;2023-06-22T10:08:35;2.67;;;2.47;;
24107;SDS011;12280;51.362;6.694;2023-06-22T10:11:03;3.00;;;2.80;;
24107;SDS011;12280;51.362;6.694;2023-06-22T10:13:29;3.50;;;3.20;;
24107;SDS011;12280;51.362;6.694;2023-06-22T10:15:55;2.25;;;1.73;;
24107;SDS011;12280;51.362;6.694;2023-06-22T10:18:21;2.13;;;2.05;;
24107;SDS011;12280;51.362;6.694;2023-06-22T10:20:47;2.75;;;2.60;;
24107;SDS011;12280;51.362;6.694;2023-06-22T10:23:15;2.47;;;2.28;;
24107;SDS011;12280;51.362;6.694;2023-06-22T10:25:41;5.40;;;2.95;;
24107;SDS011;12280;51.362;6.694;2023-06-22T10:28:07;2.33;;;1.85;;
24107;SDS011;12280;51.362;6.694;2023-06-22T10:30:33;3.40;;;3.20;;
24107;SDS011;12280;51.362;6.694;2023-06-22T10:32:59;1.30;;;1.30;;
24107;SDS011;12280;51.362;6.694;2023-06-22T10:35:25;5.97;;;3.13;;
24107;SDS011;12280;51.362;6.694;2023-06-22T10:37:51;6.03;;;2.38;;
24107;SDS011;12280;51.362;6.694;2023-06-22T10:40:17;5.68;;;4.07;;
24107;SDS011;12280;51.362;6.694;2023-06-22T10:42:43;2.03;;;1.88;;
24107;SDS011;12280;51.362;6.694;2023-06-22T10:45:10;5.72;;;3.70;;
24107;SDS011;12280;51.362;6.694;2023-06-22T10:47:36;1.52;;;1.40;;
24107;SDS011;12280;51.362;6.694;2023-06-22T10:50:02;3.15;;;2.95;;
24107;SDS011;12280;51.362;6.694;2023-06-22T10:52:28;2.33;;;1.80;;
24107;SDS011;12280;51.362;6.694;2023-06-22T10:54:54;1.60;;;1.60;;
24107;SDS011;12280;51.362;6.694;2023-06-22T10:57:21;5.07;;;4.35;;
24107;SDS011;12280;51.362;6.694;2023-06-22T10:59:47;16.10;;;2.80;;
24107;SDS011;12280;51.362;6.694;2023-06-22T11:02:13;4.45;;;2.33;;
24107;SDS011;12280;51.362;6.694;2023-06-22T11:04:39;2.83;;;2.63;;
24107;SDS011;12280;51.362;6.694;2023-06-22T11:07:05;3.05;;;2.85;;
24107;SDS011;12280;51.362;6.694;2023-06-22T11:09:31;2.22;;;2.15;;
24107;SDS011;12280;51.362;6.694;2023-06-22T11:11:57;2.15;;;2.03;;
24107;SDS011;12280;51.362;6.694;2023-06-22T11:14:24;4.20;;;3.88;;
24107;SDS011;12280;51.362;6.694;2023-06-22T11:16:50;3.45;;;3.25;;
24107;SDS011;12280;51.362;6.694;2023-06-22T11:19:16;5.55;;;4.47;;
24107;SDS011;12280;51.362;6.694;2023-06-22T11:21:42;2.47;;;2.38;;
24107;SDS011;12280;51.362;6.694;2023-06-22T11:24:08;4.60;;;4.30;;
24107;SDS011;12280;51.362;6.694;2023-06-22T11:26:34;11.60;;;4.45;;
24107;SDS011;12280;51.362;6.694;2023-06-22T11:29:00;5.60;;;5.10;;
24107;SDS011;12280;51.362;6.694;2023-06-22T11:31:30;6.53;;;4.47;;
24107;SDS011;12280;51.362;6.694;2023-06-22T11:33:56;6.18;;;4.03;;
24107;SDS011;12280;51.362;6.694;2023-06-22T11:36:22;3.05;;;2.88;;
24107;SDS011;12280;51.362;6.694;2023-06-22T11:38:48;8.98;;;5.53;;
24107;SDS011;12280;51.362;6.694;2023-06-22T11:41:14;4.07;;;3.78;;
24107;SDS011;12280;51.362;6.694;2023-06-22T11:43:40;6.60;;;5.97;;
24107;SDS011;12280;51.362;6.694;2023-06-22T11:46:06;6.10;;;4.70;;
24107;SDS011;12280;51.362;6.694;2023-06-22T11:48:32;7.70;;;7.20;;
24107;SDS011;12280;51.362;6.694;2023-06-22T11:50:58;6.40;;;5.78;;
24107;SDS011;12280;51.362;6.694;2023-06-22T11:53:26;3.92;;;3.72;;
24107;SDS011;12280;51.362;6.694;2023-06-22T11:55:52;3.88;;;3.58;;
24107;SDS011;12280;51.362;6.694;2023-06-22T11:58:20;12.90;;;7.85;;
24107;SDS011;12280;51.362;6.694;2023-06-22T12:00:46;4.25;;;4.00;;
24107;SDS011;12280;51.362;6.694;2023-06-22T12:03:11;7.90;;;6.50;;
24107;SDS011;12280;51.362;6.694;2023-06-22T12:05:39;9.75;;;5.20;;
24107;SDS011;12280;51.362;6.694;2023-06-22T12:08:05;8.98;;;6.30;;
24107;SDS011;12280;51.362;6.694;2023-06-22T12:10:31;5.25;;;4.95;;
24107;SDS011;12280;51.362;6.694;2023-06-22T12:12:57;7.57;;;5.32;;
24107;SDS011;12280;51.362;6.694;2023-06-22T12:15:24;4.57;;;4.03;;
24107;SDS011;12280;51.362;6.694;2023-06-22T12:17:50;7.13;;;6.50;;
24107;SDS011;12280;51.362;6.694;2023-06-22T12:20:16;8.73;;;8.10;;
24107;SDS011;12280;51.362;6.694;2023-06-22T12:22:43;16.20;;;5.93;;
24107;SDS011;12280;51.362;6.694;2023-06-22T12:25:09;4.50;;;4.20;;
24107;SDS011;12280;51.362;6.694;2023-06-22T12:27:35;6.68;;;6.18;;
24107;SDS011;12280;51.362;6.694;2023-06-22T12:30:02;9.15;;;8.52;;
24107;SDS011;12280;51.362;6.694;2023-06-22T12:32:28;5.85;;;5.43;;
24107;SDS011;12280;51.362;6.694;2023-06-22T12:34:54;7.55;;;6.93;;
24107;SDS011;12280;51.362;6.694;2023-06-22T12:37:20;7.53;;;6.88;;
24107;SDS011;12280;51.362;6.694;2023-06-22T12:39:46;8.07;;;7.30;;
24107;SDS011;12280;51.362;6.694;2023-06-22T12:42:12;8.10;;;7.18;;
24107;SDS011;12280;51.362;6.694;2023-06-22T12:44:38;5.22;;;4.80;;
24107;SDS011;12280;51.362;6.694;2023-06-22T12:47:05;4.68;;;4.07;;
24107;SDS011;12280;51.362;6.694;2023-06-22T12:49:31;8.45;;;7.43;;
24107;SDS011;12280;51.362;6.694;2023-06-22T12:51:57;9.30;;;6.85;;
24107;SDS011;12280;51.362;6.694;2023-06-22T12:54:23;9.63;;;7.03;;
24107;SDS011;12280;51.362;6.694;2023-06-22T12:56:52;14.80;;;4.50;;
24107;SDS011;12280;51.362;6.694;2023-06-22T12:59:18;12.30;;;6.82;;
24107;SDS011;12280;51.362;6.694;2023-06-22T13:01:44;9.88;;;8.57;;
24107;SDS011;12280;51.362;6.694;2023-06-22T13:04:10;7.18;;;6.50;;
24107;SDS011;12280;51.362;6.694;2023-06-22T13:06:39;10.52;;;6.20;;
24107;SDS011;12280;51.362;6.694;2023-06-22T13:09:05;10.15;;;8.60;;
24107;SDS011;12280;51.362;6.694;2023-06-22T13:11:31;8.15;;;5.72;;
24107;SDS011;12280;51.362;6.694;2023-06-22T13:13:57;8.32;;;6.55;;
24107;SDS011;12280;51.362;6.694;2023-06-22T13:16:23;7.55;;;7.13;;
24107;SDS011;12280;51.362;6.694;2023-06-22T13:18:49;10.07;;;6.68;;
24107;SDS011;12280;51.362;6.694;2023-06-22T13:21:15;5.63;;;5.15;;
24107;SDS011;12280;51.362;6.694;2023-06-22T13:23:41;4.65;;;4.30;;
24107;SDS011;12280;51.362;6.694;2023-06-22T13:26:07;11.35;;;7.22;;
24107;SDS011;12280;51.362;6.694;2023-06-22T13:28:33;7.68;;;6.93;;
24107;SDS011;12280;51.362;6.694;2023-06-22T13:30:59;8.35;;;7.53;;
24107;SDS011;12280;51.362;6.694;2023-06-22T13:33:25;10.77;;;6.35;;
24107;SDS011;12280;51.362;6.694;2023-06-22T13:35:51;12.05;;;9.90;;
24107;SDS011;12280;51.362;6.694;2023-06-22T13:38:17;7.68;;;7.07;;
24107;SDS011;12280;51.362;6.694;2023-06-22T13:40:43;10.45;;;7.10;;
24107;SDS011;12280;51.362;6.694;2023-06-22T13:43:09;16.55;;;7.65;;
24107;SDS011;12280;51.362;6.694;2023-06-22T13:45:35;7.15;;;6.10;;
24107;SDS011;12280;51.362;6.694;2023-06-22T13:48:01;6.60;;;5.22;;
24107;SDS011;12280;51.362;6.694;2023-06-22T13:50:27;10.13;;;6.85;;
24107;SDS011;12280;51.362;6.694;2023-06-22T13:52:54;7.25;;;6.10;;
24107;SDS011;12280;51.362;6.694;2023-06-22T13:55:21;9.02;;;7.68;;
24107;SDS011;12280;51.362;6.694;2023-06-22T13:57:48;8.13;;;4.95;;
24107;SDS011;12280;51.362;6.694;2023-06-22T14:00:14;9.63;;;8.40;;
24107;SDS011;12280;51.362;6.694;2023-06-22T14:02:40;6.97;;;4.95;;
24107;SDS011;12280;51.362;6.694;2023-06-22T14:05:06;8.77;;;5.95;;
24107;SDS011;12280;51.362;6.694;2023-06-22T14:07:33;7.20;;;6.13;;
24107;SDS011;12280;51.362;6.694;2023-06-22T14:09:59;5.97;;;5.47;;
24107;SDS011;12280;51.362;6.694;2023-06-22T14:12:25;6.70;;;5.78;;
24107;SDS011;12280;51.362;6.694;2023-06-22T14:14:51;10.43;;;7.32;;
24107;SDS011;12280;51.362;6.694;2023-06-22T14:17:17;12.50;;;7.18;;
24107;SDS011;12280;51.362;6.694;2023-06-22T14:19:48;10.43;;;7.03;;
24107;SDS011;12280;51.362;6.694;2023-06-22T14:22:14;7.85;;;7.15;;
24107;SDS011;12280;51.362;6.694;2023-06-22T14:24:40;14.98;;;7.97;;
24107;SDS011;12280;51.362;6.694;2023-06-22T14:27:06;7.85;;;7.18;;
24107;SDS011;12280;51.362;6.694;2023-06-22T14:29:33;5.28;;;4.10;;
24107;SDS011;12280;51.362;6.694;2023-06-22T14:31:59;7.65;;;5.57;;
24107;SDS011;12280;51.362;6.694;2023-06-22T14:34:25;7.32;;;6.72;;
24107;SDS011;12280;51.362;6.694;2023-06-22T14:36:51;8.32;;;7.72;;
24107;SDS011;12280;51.362;6.694;2023-06-22T14:39:17;9.13;;;8.02;;
24107;SDS011;12280;51.362;6.694;2023-06-22T14:41:43;4.80;;;4.43;;
24107;SDS011;12280;51.362;6.694;2023-06-22T14:44:09;6.50;;;3.42;;
24107;SDS011;12280;51.362;6.694;2023-06-22T14:46:35;14.32;;;9.00;;
24107;SDS011;12280;51.362;6.694;2023-06-22T14:49:01;12.13;;;7.07;;